createdAt,value
2018-05-05T00:00:33.842Z,14.76
2018-05-05T00:03:01.531Z,14.56
2018-05-05T00:05:29.144Z,14.64
2018-05-05T00:07:57.065Z,14.74
2018-05-05T00:10:29.423Z,14.83
2018-05-05T00:12:57.321Z,14.71
2018-05-05T00:15:25.019Z,14.49
2018-05-05T00:17:52.660Z,14.49
2018-05-05T00:20:20.479Z,14.53
2018-05-05T00:22:49.383Z,14.52
2018-05-05T00:25:17.341Z,14.40
2018-05-05T00:27:45.241Z,14.26
2018-05-05T00:30:13.170Z,14.16
2018-05-05T00:32:40.794Z,14.21
2018-05-05T00:35:08.417Z,14.26
2018-05-05T00:37:36.193Z,14.18
2018-05-05T00:40:03.975Z,14.04
2018-05-05T00:42:31.589Z,14.07
2018-05-05T00:44:59.290Z,14.13
2018-05-05T00:47:26.932Z,14.04
2018-05-05T00:49:54.611Z,13.90
2018-05-05T00:52:22.209Z,13.96
2018-05-05T00:54:51.552Z,13.84
2018-05-05T00:57:19.178Z,13.81
2018-05-05T00:59:46.906Z,13.75
2018-05-05T01:02:14.620Z,13.52
2018-05-05T01:04:42.287Z,13.43
2018-05-05T01:07:10.037Z,13.35
2018-05-05T01:09:37.939Z,13.22
2018-05-05T01:12:05.756Z,13.36
2018-05-05T01:14:33.764Z,13.34
2018-05-05T01:17:01.474Z,13.44
2018-05-05T01:19:29.422Z,13.43
2018-05-05T01:21:57.262Z,13.30
2018-05-05T01:24:25.145Z,13.35
2018-05-05T01:26:52.876Z,13.23
2018-05-05T01:29:20.636Z,13.15
2018-05-05T01:31:48.659Z,13.28
2018-05-05T01:34:16.404Z,13.28
2018-05-05T01:36:44.295Z,13.09
2018-05-05T01:39:12.153Z,12.99
2018-05-05T01:41:41.716Z,13.08
2018-05-05T01:44:11.736Z,12.84
2018-05-05T01:46:39.700Z,12.61
2018-05-05T01:49:08.943Z,12.79
2018-05-05T01:51:38.232Z,12.90
2018-05-05T01:54:07.382Z,12.80
2018-05-05T01:56:37.053Z,12.69
2018-05-05T01:59:05.779Z,12.68
2018-05-05T02:01:33.899Z,12.65
2018-05-05T02:04:03.968Z,12.64
2018-05-05T02:06:32.141Z,12.71
2018-05-05T02:09:01.284Z,12.85
2018-05-05T02:11:30.542Z,12.74
2018-05-05T02:13:58.917Z,12.77
2018-05-05T02:16:30.062Z,12.78
2018-05-05T02:18:58.337Z,12.77
2018-05-05T02:21:32.958Z,12.72
2018-05-05T02:24:02.157Z,12.33
2018-05-05T02:26:30.381Z,12.27
2018-05-05T02:29:09.710Z,11.92
2018-05-05T02:31:37.570Z,12.11
2018-05-05T02:34:06.526Z,12.23
2018-05-05T02:36:36.544Z,12.27
2018-05-05T02:39:05.946Z,12.36
2018-05-05T02:41:36.213Z,12.32
2018-05-05T02:44:07.213Z,12.30
2018-05-05T02:46:40.852Z,12.32
2018-05-05T02:49:20.716Z,12.18
2018-05-05T02:51:52.566Z,12.17
2018-05-05T02:57:05.852Z,12.42
2018-05-05T02:59:34.341Z,12.45
2018-05-05T03:02:01.975Z,12.14
2018-05-05T03:04:29.665Z,11.89
2018-05-05T03:06:57.502Z,11.90
2018-05-05T03:09:25.357Z,11.93
2018-05-05T03:11:53.660Z,11.95
2018-05-05T03:14:21.649Z,12.05
2018-05-05T03:16:49.835Z,11.88
2018-05-05T03:19:18.582Z,11.77
2018-05-05T03:21:48.465Z,11.79
2018-05-05T03:24:16.369Z,11.78
2018-05-05T03:26:45.382Z,11.60
2018-05-05T03:29:13.383Z,11.57
2018-05-05T03:31:41.219Z,11.68
2018-05-05T03:34:08.915Z,11.74
2018-05-05T03:36:36.887Z,11.82
2018-05-05T03:39:04.592Z,11.91
2018-05-05T03:41:32.472Z,11.98
2018-05-05T03:44:00.485Z,11.91
2018-05-05T03:46:28.454Z,11.84
2018-05-05T03:48:56.316Z,11.73
2018-05-05T03:51:24.109Z,11.85
2018-05-05T03:53:51.810Z,11.89
2018-05-05T03:56:21.884Z,11.95
2018-05-05T03:58:55.218Z,12.00
2018-05-05T04:01:34.637Z,12.09
2018-05-05T04:04:02.655Z,12.10
2018-05-05T04:06:30.538Z,12.09
2018-05-05T04:08:58.328Z,12.12
2018-05-05T04:11:26.164Z,12.09
2018-05-05T04:13:54.236Z,12.12
2018-05-05T04:16:22.102Z,12.10
2018-05-05T04:18:50.232Z,12.06
2018-05-05T04:21:18.034Z,12.20
2018-05-05T04:23:49.023Z,12.20
2018-05-05T04:26:18.482Z,12.12
2018-05-05T04:28:46.191Z,11.98
2018-05-05T04:31:14.026Z,11.97
2018-05-05T04:33:42.022Z,11.98
2018-05-05T04:36:09.784Z,11.81
2018-05-05T04:38:42.487Z,11.84
2018-05-05T04:41:10.400Z,11.86
2018-05-05T04:43:38.398Z,11.89
2018-05-05T04:46:07.202Z,11.89
2018-05-05T04:48:35.311Z,11.93
2018-05-05T04:51:04.122Z,11.99
2018-05-05T04:53:32.397Z,11.97
2018-05-05T04:56:00.142Z,12.04
2018-05-05T04:58:27.994Z,12.17
2018-05-05T05:00:56.046Z,12.26
2018-05-05T05:03:23.704Z,12.20
2018-05-05T05:05:51.603Z,12.16
2018-05-05T05:08:19.587Z,12.16
2018-05-05T05:10:47.669Z,12.24
2018-05-05T05:13:16.661Z,12.33
2018-05-05T05:15:48.274Z,12.42
2018-05-05T05:18:20.176Z,12.43
2018-05-05T05:20:48.144Z,12.34
2018-05-05T05:23:19.083Z,12.39
2018-05-05T05:25:47.156Z,12.38
2018-05-05T05:28:15.639Z,12.58
2018-05-05T05:30:43.888Z,12.69
2018-05-05T05:33:12.461Z,12.80
2018-05-05T05:35:40.112Z,12.89
2018-05-05T05:38:11.992Z,13.02
2018-05-05T05:40:48.367Z,13.07
2018-05-05T05:43:22.840Z,13.13
2018-05-05T05:46:05.632Z,13.26
2018-05-05T05:51:13.577Z,13.48
2018-05-05T05:53:48.818Z,13.51
2018-05-05T05:56:18.063Z,13.62
2018-05-05T05:58:49.058Z,13.73
2018-05-05T06:01:25.414Z,13.78
2018-05-05T06:03:54.295Z,13.84
2018-05-05T06:06:22.143Z,13.90
2018-05-05T06:08:49.818Z,13.85
2018-05-05T06:11:17.749Z,13.85
2018-05-05T06:13:45.578Z,13.92
2018-05-05T06:16:13.738Z,13.89
2018-05-05T06:18:41.740Z,14.02
2018-05-05T06:21:09.943Z,14.09
2018-05-05T06:23:38.828Z,14.18
2018-05-05T06:26:06.644Z,14.27
2018-05-05T06:28:34.453Z,14.35
2018-05-05T06:31:02.093Z,14.44
2018-05-05T06:33:29.797Z,14.54
2018-05-05T06:35:57.502Z,14.62
2018-05-05T06:38:25.141Z,14.68
2018-05-05T06:40:52.919Z,14.74
2018-05-05T06:43:20.632Z,14.72
2018-05-05T06:45:48.368Z,14.73
2018-05-05T06:48:16.590Z,14.80
2018-05-05T06:50:44.490Z,14.83
2018-05-05T06:53:12.154Z,14.86
2018-05-05T06:55:39.874Z,14.98
2018-05-05T06:58:07.644Z,15.11
2018-05-05T07:00:35.260Z,15.19
2018-05-05T07:03:03.226Z,15.34
2018-05-05T07:05:32.199Z,15.46
2018-05-05T07:07:59.870Z,15.56
2018-05-05T07:10:28.501Z,15.67
2018-05-05T07:12:56.133Z,15.78
2018-05-05T07:15:23.961Z,15.86
2018-05-05T07:17:51.940Z,15.87
2018-05-05T07:20:19.785Z,15.96
2018-05-05T07:22:48.277Z,16.10
2018-05-05T07:25:16.453Z,16.20
2018-05-05T07:27:44.425Z,16.22
2018-05-05T07:30:13.174Z,16.32
2018-05-05T07:32:41.187Z,16.44
2018-05-05T07:35:09.340Z,16.41
2018-05-05T07:37:37.205Z,16.51
2018-05-05T07:40:07.281Z,16.58
2018-05-05T07:42:36.159Z,16.62
2018-05-05T07:45:04.312Z,16.72
2018-05-05T07:47:33.175Z,16.77
2018-05-05T07:50:01.827Z,16.93
2018-05-05T07:52:29.537Z,17.02
2018-05-05T07:54:57.234Z,17.09
2018-05-05T07:57:24.841Z,17.16
2018-05-05T07:59:52.504Z,17.25
2018-05-05T08:02:20.117Z,17.34
2018-05-05T08:04:48.014Z,17.44
2018-05-05T08:07:16.163Z,17.51
2018-05-05T08:09:43.819Z,17.55
2018-05-05T08:12:11.547Z,17.59
2018-05-05T08:14:39.354Z,17.66
2018-05-05T08:17:07.030Z,17.85
2018-05-05T08:19:34.681Z,17.90
2018-05-05T08:22:02.335Z,18.15
2018-05-05T08:24:29.958Z,18.18
2018-05-05T08:26:57.598Z,18.15
2018-05-05T08:29:25.197Z,18.21
2018-05-05T08:31:52.863Z,18.44
2018-05-05T08:34:20.517Z,18.62
2018-05-05T08:36:48.242Z,18.57
2018-05-05T08:39:17.179Z,18.77
2018-05-05T08:41:44.792Z,18.78
2018-05-05T08:44:14.929Z,18.89
2018-05-05T08:46:44.075Z,19.00
2018-05-05T08:49:12.384Z,19.12
2018-05-05T08:51:40.279Z,19.14
2018-05-05T08:54:08.073Z,19.22
2018-05-05T08:56:36.214Z,19.34
2018-05-05T08:59:03.881Z,19.43
2018-05-05T09:01:31.918Z,19.57
2018-05-05T09:04:00.032Z,19.45
2018-05-05T09:06:27.775Z,19.45
2018-05-05T09:08:55.437Z,19.43
2018-05-05T09:11:23.953Z,19.55
2018-05-05T09:13:51.902Z,19.59
2018-05-05T09:16:21.302Z,19.70
2018-05-05T09:18:49.048Z,19.90
2018-05-05T09:21:16.676Z,20.20
2018-05-05T09:23:44.480Z,20.36
2018-05-05T09:26:12.109Z,20.42
2018-05-05T09:28:39.754Z,20.51
2018-05-05T09:31:07.402Z,20.76
2018-05-05T09:33:35.004Z,20.88
2018-05-05T09:36:02.648Z,20.97
2018-05-05T09:38:30.256Z,20.98
2018-05-05T09:40:57.916Z,20.81
2018-05-05T09:43:25.605Z,21.10
2018-05-05T09:45:53.273Z,21.08
2018-05-05T09:48:20.940Z,20.97
2018-05-05T09:50:48.705Z,20.86
2018-05-05T09:53:16.331Z,21.09
2018-05-05T09:55:44.057Z,20.99
2018-05-05T09:58:11.733Z,21.38
2018-05-05T10:00:39.366Z,21.58
2018-05-05T10:03:07.021Z,21.65
2018-05-05T10:05:34.724Z,21.75
2018-05-05T10:08:02.308Z,21.59
2018-05-05T10:10:29.965Z,21.38
2018-05-05T10:12:57.590Z,21.47
2018-05-05T10:15:25.168Z,21.60
2018-05-05T10:17:52.820Z,22.07
2018-05-05T10:20:20.420Z,22.36
2018-05-05T10:22:48.125Z,22.55
2018-05-05T10:25:15.732Z,22.62
2018-05-05T10:27:43.385Z,21.93
2018-05-05T10:30:11.016Z,22.30
2018-05-05T10:32:38.634Z,22.42
2018-05-05T10:35:06.222Z,21.90
2018-05-05T10:37:33.877Z,22.16
2018-05-05T10:40:01.469Z,22.40
2018-05-05T10:42:29.168Z,22.92
2018-05-05T10:44:56.969Z,23.00
2018-05-05T10:47:24.624Z,22.87
2018-05-05T10:49:52.243Z,22.73
2018-05-05T10:52:19.893Z,23.00
2018-05-05T10:54:47.557Z,23.18
2018-05-05T10:57:15.405Z,23.56
2018-05-05T10:59:43.017Z,23.85
2018-05-05T11:02:10.686Z,23.35
2018-05-05T11:04:38.338Z,23.61
2018-05-05T11:07:06.036Z,24.01
2018-05-05T11:09:33.678Z,24.40
2018-05-05T11:12:01.263Z,24.70
2018-05-05T11:14:29.016Z,24.12
2018-05-05T11:16:56.619Z,24.04
2018-05-05T11:19:24.290Z,23.81
2018-05-05T11:21:51.886Z,24.41
2018-05-05T11:24:19.515Z,24.64
2018-05-05T11:26:47.112Z,24.79
2018-05-05T11:29:14.765Z,24.93
2018-05-05T11:31:42.393Z,25.05
2018-05-05T11:34:10.021Z,25.38
2018-05-05T11:36:37.637Z,25.57
2018-05-05T11:39:06.281Z,25.08
2018-05-05T11:41:33.877Z,25.16
2018-05-05T11:44:01.517Z,25.52
2018-05-05T11:46:29.136Z,25.72
2018-05-05T11:48:56.789Z,25.99
2018-05-05T11:51:24.373Z,25.44
2018-05-05T11:53:52.029Z,25.13
2018-05-05T11:56:19.651Z,25.30
2018-05-05T11:58:47.234Z,25.79
2018-05-05T12:01:14.857Z,25.40
2018-05-05T12:03:42.564Z,25.68
2018-05-05T12:06:10.242Z,26.18
2018-05-05T12:08:37.839Z,26.13
2018-05-05T12:11:05.487Z,26.31
2018-05-05T12:13:33.081Z,26.55
2018-05-05T12:16:00.753Z,26.60
2018-05-05T12:18:28.401Z,26.93
2018-05-05T12:20:56.024Z,26.97
2018-05-05T12:23:23.629Z,27.10
2018-05-05T12:25:51.325Z,27.16
2018-05-05T12:28:18.957Z,27.35
2018-05-05T12:30:46.690Z,26.86
2018-05-05T12:33:14.316Z,27.05
2018-05-05T12:35:41.946Z,27.06
2018-05-05T12:38:09.537Z,27.04
2018-05-05T12:40:37.189Z,27.21
2018-05-05T12:43:04.802Z,27.33
2018-05-05T12:45:32.401Z,27.51
2018-05-05T12:48:00.050Z,27.47
2018-05-05T12:50:27.649Z,27.70
2018-05-05T12:52:55.292Z,27.61
2018-05-05T12:55:22.893Z,27.64
2018-05-05T12:57:50.623Z,27.91
2018-05-05T13:00:18.212Z,28.24
2018-05-05T13:02:45.846Z,27.74
2018-05-05T13:05:13.457Z,27.75
2018-05-05T13:07:41.076Z,27.52
2018-05-05T13:10:08.698Z,27.21
2018-05-05T13:12:36.348Z,27.82
2018-05-05T13:15:03.941Z,27.90
2018-05-05T13:17:31.590Z,28.15
2018-05-05T13:19:59.303Z,28.53
2018-05-05T13:22:26.960Z,28.50
2018-05-05T13:24:54.545Z,28.24
2018-05-05T13:27:22.236Z,28.72
2018-05-05T13:29:49.929Z,29.16
2018-05-05T13:32:17.585Z,29.31
2018-05-05T13:34:45.222Z,29.07
2018-05-05T13:37:12.869Z,29.27
2018-05-05T13:39:40.512Z,29.07
2018-05-05T13:42:08.160Z,28.82
2018-05-05T13:44:35.827Z,28.92
2018-05-05T13:47:03.434Z,28.57
2018-05-05T13:49:31.097Z,28.99
2018-05-05T13:51:58.705Z,29.15
2018-05-05T13:54:26.345Z,29.21
2018-05-05T13:56:54.007Z,29.67
2018-05-05T13:59:21.641Z,29.55
2018-05-05T14:01:49.234Z,29.88
2018-05-05T14:04:16.892Z,29.53
2018-05-05T14:06:44.493Z,29.35
2018-05-05T14:09:12.170Z,28.92
2018-05-05T14:11:39.773Z,28.66
2018-05-05T14:14:07.428Z,29.04
2018-05-05T14:16:35.042Z,29.35
2018-05-05T14:19:02.715Z,29.27
2018-05-05T14:21:30.408Z,28.83
2018-05-05T14:23:58.004Z,29.22
2018-05-05T14:26:25.767Z,29.73
2018-05-05T14:28:53.333Z,29.74
2018-05-05T14:31:20.968Z,29.58
2018-05-05T14:33:48.598Z,29.77
2018-05-05T14:36:16.247Z,29.69
2018-05-05T14:38:43.848Z,29.99
2018-05-05T14:41:11.480Z,29.98
2018-05-05T14:43:39.072Z,30.03
2018-05-05T14:46:06.719Z,30.50
2018-05-05T14:48:34.359Z,29.91
2018-05-05T14:51:02.020Z,29.12
2018-05-05T14:53:29.624Z,29.23
2018-05-05T14:55:57.431Z,29.00
2018-05-05T14:58:25.090Z,29.07
2018-05-05T15:00:52.687Z,29.22
2018-05-05T15:03:20.330Z,29.39
2018-05-05T15:05:47.936Z,29.84
2018-05-05T15:08:15.593Z,30.21
2018-05-05T15:10:43.226Z,30.62
2018-05-05T15:13:10.863Z,30.64
2018-05-05T15:15:38.481Z,30.90
2018-05-05T15:18:06.120Z,31.15
2018-05-05T15:20:33.788Z,30.92
2018-05-05T15:23:01.426Z,30.64
2018-05-05T15:25:29.044Z,30.11
2018-05-05T15:27:56.631Z,30.20
2018-05-05T15:30:24.218Z,30.35
2018-05-05T15:32:51.867Z,30.57
2018-05-05T15:35:19.480Z,30.55
2018-05-05T15:37:47.117Z,30.49
2018-05-05T15:40:14.710Z,30.13
2018-05-05T15:42:42.322Z,29.40
2018-05-05T15:45:09.967Z,29.58
2018-05-05T15:47:37.584Z,29.81
2018-05-05T15:50:05.241Z,29.77
2018-05-05T15:52:32.843Z,30.09
2018-05-05T15:55:00.469Z,30.11
2018-05-05T15:57:28.061Z,30.35
2018-05-05T15:59:55.704Z,30.22
2018-05-05T16:02:23.335Z,30.04
2018-05-05T16:04:50.973Z,30.12
2018-05-05T16:07:18.741Z,30.12
2018-05-05T16:09:46.390Z,29.69
2018-05-05T16:12:14.156Z,29.72
2018-05-05T16:14:41.789Z,29.63
2018-05-05T16:17:09.424Z,29.82
2018-05-05T16:19:37.084Z,29.66
2018-05-05T16:22:04.681Z,29.79
2018-05-05T16:24:32.281Z,30.01
2018-05-05T16:27:00.046Z,29.96
2018-05-05T16:29:27.703Z,29.87
2018-05-05T16:31:55.349Z,30.03
2018-05-05T16:34:22.961Z,29.94
2018-05-05T16:36:50.592Z,30.07
2018-05-05T16:39:18.201Z,29.81
2018-05-05T16:41:45.851Z,29.64
2018-05-05T16:44:13.449Z,29.71
2018-05-05T16:46:41.198Z,29.67
2018-05-05T16:49:08.828Z,29.77
2018-05-05T16:51:36.458Z,29.85
2018-05-05T16:54:04.070Z,29.61
2018-05-05T16:56:31.712Z,29.49
2018-05-05T16:58:59.449Z,29.59
2018-05-05T17:01:27.081Z,29.47
2018-05-05T17:03:54.724Z,29.74
2018-05-05T17:06:22.376Z,29.77
2018-05-05T17:08:49.997Z,29.27
2018-05-05T17:11:17.665Z,29.31
2018-05-05T17:13:45.301Z,28.81
2018-05-05T17:16:12.913Z,28.74
2018-05-05T17:18:40.566Z,28.93
2018-05-05T17:21:08.172Z,28.76
2018-05-05T17:23:35.817Z,28.59
2018-05-05T17:26:03.475Z,28.21
2018-05-05T17:28:31.129Z,28.33
2018-05-05T17:30:58.729Z,28.32
2018-05-05T17:33:26.380Z,28.21
2018-05-05T17:35:53.988Z,28.06
2018-05-05T17:38:21.612Z,28.03
2018-05-05T17:40:49.216Z,27.92
2018-05-05T17:43:16.850Z,27.55
2018-05-05T17:45:44.464Z,27.54
2018-05-05T17:48:12.116Z,27.48
2018-05-05T17:50:39.740Z,27.29
2018-05-05T17:53:07.380Z,27.11
2018-05-05T17:55:34.989Z,27.30
2018-05-05T17:58:02.594Z,27.25
2018-05-05T18:00:30.253Z,26.82
2018-05-05T18:02:58.157Z,26.66
2018-05-05T18:05:25.777Z,26.40
2018-05-05T18:07:53.381Z,26.00
2018-05-05T18:10:21.106Z,25.93
2018-05-05T18:12:48.704Z,25.65
2018-05-05T18:15:16.766Z,25.21
2018-05-05T18:17:44.590Z,24.95
2018-05-05T18:20:12.246Z,24.89
2018-05-05T18:22:39.849Z,24.68
2018-05-05T18:25:07.554Z,24.47
2018-05-05T18:27:35.215Z,24.47
2018-05-05T18:30:02.866Z,24.24
2018-05-05T18:32:30.465Z,24.34
2018-05-05T18:34:58.137Z,24.12
2018-05-05T18:37:25.778Z,24.07
2018-05-05T18:39:53.446Z,24.11
2018-05-05T18:42:21.048Z,23.94
2018-05-05T18:44:50.685Z,23.89
2018-05-05T18:47:18.368Z,23.86
2018-05-05T18:49:45.980Z,23.83
2018-05-05T18:52:13.645Z,23.46
2018-05-05T18:54:41.884Z,23.45
2018-05-05T18:57:10.337Z,23.38
2018-05-05T18:59:38.029Z,23.21
2018-05-05T19:02:05.666Z,23.24
2018-05-05T19:04:33.290Z,23.27
2018-05-05T19:07:00.949Z,23.34
2018-05-05T19:09:28.669Z,23.46
2018-05-05T19:11:56.344Z,23.62
2018-05-05T19:14:24.076Z,24.07
2018-05-05T19:16:51.737Z,24.31
2018-05-05T19:19:19.958Z,24.69
2018-05-05T19:21:47.613Z,25.15
2018-05-05T19:24:15.238Z,25.55
2018-05-05T19:26:42.901Z,25.72
2018-05-05T19:29:10.535Z,25.89
2018-05-05T19:31:38.253Z,25.90
2018-05-05T19:34:05.879Z,25.91
2018-05-05T19:36:33.589Z,25.88
2018-05-05T19:39:01.217Z,25.83
2018-05-05T19:41:28.845Z,25.82
2018-05-05T19:43:56.641Z,25.74
2018-05-05T19:46:24.278Z,25.59
2018-05-05T19:48:51.939Z,25.52
2018-05-05T19:51:19.557Z,25.58
2018-05-05T19:53:47.222Z,25.69
2018-05-05T19:56:14.845Z,25.88
2018-05-05T19:58:42.500Z,26.02
2018-05-05T20:01:10.134Z,26.41
2018-05-05T20:03:37.926Z,27.54
2018-05-05T20:06:05.632Z,28.97
2018-05-05T20:08:33.305Z,29.80
2018-05-05T20:11:00.922Z,29.81
2018-05-05T20:13:28.767Z,29.49
2018-05-05T20:15:56.405Z,29.27
2018-05-05T20:18:24.059Z,28.76
2018-05-05T20:20:51.667Z,28.32
2018-05-05T20:23:19.601Z,27.79
2018-05-05T20:25:47.253Z,27.13
2018-05-05T20:28:14.863Z,26.53
2018-05-05T20:30:42.551Z,25.86
2018-05-05T20:33:10.161Z,25.19
2018-05-05T20:35:37.802Z,24.63
2018-05-05T20:38:05.414Z,24.27
2018-05-05T20:40:33.053Z,23.86
2018-05-05T20:43:00.760Z,23.27
2018-05-05T20:45:28.400Z,23.00
2018-05-05T20:47:56.016Z,22.82
2018-05-05T20:50:23.651Z,22.60
2018-05-05T20:52:51.261Z,22.42
2018-05-05T20:55:18.898Z,22.13
2018-05-05T20:57:46.508Z,21.92
2018-05-05T21:00:14.333Z,21.82
2018-05-05T21:02:41.940Z,21.75
2018-05-05T21:05:09.671Z,21.76
2018-05-05T21:07:37.277Z,21.60
2018-05-05T21:10:04.948Z,21.43
2018-05-05T21:12:32.677Z,21.34
2018-05-05T21:15:00.520Z,21.34
2018-05-05T21:17:28.125Z,21.30
2018-05-05T21:19:55.773Z,21.11
2018-05-05T21:22:23.548Z,20.95
2018-05-05T21:24:51.241Z,20.84
2018-05-05T21:27:18.884Z,20.72
2018-05-05T21:29:46.475Z,20.56
2018-05-05T21:32:14.134Z,20.53
2018-05-05T21:34:41.737Z,20.36
2018-05-05T21:37:09.448Z,20.31
2018-05-05T21:39:37.050Z,20.43
2018-05-05T21:42:04.720Z,20.39
2018-05-05T21:44:32.330Z,20.26
2018-05-05T21:46:59.990Z,20.26
2018-05-05T21:49:27.598Z,20.15
2018-05-05T21:51:55.402Z,20.11
2018-05-05T21:54:23.194Z,20.07
2018-05-05T21:56:50.868Z,20.00
2018-05-05T21:59:19.127Z,20.04
2018-05-05T22:01:46.797Z,19.83
2018-05-05T22:04:14.481Z,19.49
2018-05-05T22:06:42.058Z,19.47
2018-05-05T22:09:09.691Z,19.41
2018-05-05T22:11:37.329Z,19.49
2018-05-05T22:14:04.966Z,19.36
2018-05-05T22:16:32.582Z,19.32
2018-05-05T22:19:00.236Z,19.24
2018-05-05T22:21:27.840Z,19.25
2018-05-05T22:23:55.495Z,19.13
2018-05-05T22:26:23.093Z,19.16
2018-05-05T22:28:50.737Z,19.08
2018-05-05T22:31:18.439Z,19.13
2018-05-05T22:33:46.131Z,19.17
2018-05-05T22:36:13.734Z,19.08
2018-05-05T22:38:41.365Z,19.12
2018-05-05T22:41:09.023Z,18.95
2018-05-05T22:43:36.730Z,18.83
2018-05-05T22:46:04.354Z,18.70
2018-05-05T22:48:31.983Z,18.57
2018-05-05T22:50:59.621Z,18.47
2018-05-05T22:53:27.219Z,18.62
2018-05-05T22:55:54.939Z,18.65
2018-05-05T22:58:22.556Z,18.43
2018-05-05T23:00:50.186Z,17.91
2018-05-05T23:03:17.822Z,17.75
2018-05-05T23:05:45.930Z,17.55
2018-05-05T23:08:13.589Z,17.73
2018-05-05T23:10:41.204Z,17.68
2018-05-05T23:13:08.835Z,17.80
2018-05-05T23:15:36.457Z,17.93
2018-05-05T23:18:04.223Z,17.88
2018-05-05T23:20:31.816Z,17.55
2018-05-05T23:22:59.459Z,17.56
2018-05-05T23:25:27.070Z,17.20
2018-05-05T23:27:54.715Z,17.05
2018-05-05T23:30:22.322Z,16.93
2018-05-05T23:32:49.956Z,16.86
2018-05-05T23:35:17.569Z,16.72
2018-05-05T23:37:45.239Z,16.58
2018-05-05T23:40:12.857Z,16.42
2018-05-05T23:42:40.574Z,16.33
2018-05-05T23:45:08.422Z,16.41
2018-05-05T23:47:36.155Z,16.70
2018-05-05T23:50:03.837Z,16.78
2018-05-05T23:52:31.731Z,16.57
2018-05-05T23:54:59.525Z,16.39
2018-05-05T23:57:27.233Z,16.18
2018-05-05T23:59:54.980Z,16.16
